Archival Weather

Heathrow

Heathrow, United Kingdom (EGLL)

Report from: Thursday, June 23, 2022 11:20 PM BST
Current time: Tuesday, August 16, 2022 8:05 AM BST

Current weather
Weather history
Weather forecast

Temperature18.0°C (64.4°F)
Dew point11.0°C (51.8°F)
Winds 10 kts (5.1 m/s, 11.5 mph) South-Southwest (200°)
Visibility6.2 mi. (10 km)
Clouds Sky clear
Altimeter29.74 in.Hg (1007 mB)
Relative humidity64 %
Density altitude749 ft. (228 m)
Remarks Fully automated report
Corrected report
No clouds detected
No significant changes expected in the next two hours
Flight conditions Visual Meteorological Conditions
Raw dataCOR EGLL 232220Z AUTO 20010KT 9999 NCD 18/11 Q1007 NOSIG
An error has occurred. This application may no longer respond until reloaded. Reload 🗙